sensor_id;sensor_type;location;lat;lon;timestamp;temperature;humidity
19279;DHT22;9773;47.062;15.446;2024-02-26T00:01:42;4.30;99.90
19279;DHT22;9773;47.062;15.446;2024-02-26T00:04:11;4.20;99.90
19279;DHT22;9773;47.062;15.446;2024-02-26T00:06:38;4.30;99.90
19279;DHT22;9773;47.062;15.446;2024-02-26T00:09:07;4.20;99.90
19279;DHT22;9773;47.062;15.446;2024-02-26T00:11:34;4.10;99.90
19279;DHT22;9773;47.062;15.446;2024-02-26T00:14:01;4.10;99.90
19279;DHT22;9773;47.062;15.446;2024-02-26T00:16:27;4.10;99.90
19279;DHT22;9773;47.062;15.446;2024-02-26T00:18:53;4.20;99.90
19279;DHT22;9773;47.062;15.446;2024-02-26T00:21:19;4.10;99.90
19279;DHT22;9773;47.062;15.446;2024-02-26T00:23:44;4.10;99.90
19279;DHT22;9773;47.062;15.446;2024-02-26T00:26:10;4.10;99.90
19279;DHT22;9773;47.062;15.446;2024-02-26T00:28:37;4.10;99.90
19279;DHT22;9773;47.062;15.446;2024-02-26T00:31:03;4.20;99.90
19279;DHT22;9773;47.062;15.446;2024-02-26T00:33:29;4.30;99.90
19279;DHT22;9773;47.062;15.446;2024-02-26T00:35:54;4.20;99.90
19279;DHT22;9773;47.062;15.446;2024-02-26T00:38:20;4.10;99.90
19279;DHT22;9773;47.062;15.446;2024-02-26T00:40:46;4.20;99.90
19279;DHT22;9773;47.062;15.446;2024-02-26T00:43:12;4.20;99.90
19279;DHT22;9773;47.062;15.446;2024-02-26T00:45:38;4.20;99.90
19279;DHT22;9773;47.062;15.446;2024-02-26T00:48:04;4.20;99.90
19279;DHT22;9773;47.062;15.446;2024-02-26T00:50:36;4.30;99.90
19279;DHT22;9773;47.062;15.446;2024-02-26T00:53:02;4.20;99.90
19279;DHT22;9773;47.062;15.446;2024-02-26T00:55:28;4.10;99.90
19279;DHT22;9773;47.062;15.446;2024-02-26T00:57:54;4.00;99.90
19279;DHT22;9773;47.062;15.446;2024-02-26T01:00:20;3.90;99.90
19279;DHT22;9773;47.062;15.446;2024-02-26T01:02:46;3.80;99.90
19279;DHT22;9773;47.062;15.446;2024-02-26T01:05:13;3.80;99.90
19279;DHT22;9773;47.062;15.446;2024-02-26T01:07:39;3.70;99.90
19279;DHT22;9773;47.062;15.446;2024-02-26T01:10:06;3.80;99.90
19279;DHT22;9773;47.062;15.446;2024-02-26T01:12:36;3.80;99.90
19279;DHT22;9773;47.062;15.446;2024-02-26T01:15:02;3.80;99.90
19279;DHT22;9773;47.062;15.446;2024-02-26T01:17:31;3.80;99.90
19279;DHT22;9773;47.062;15.446;2024-02-26T01:19:57;3.80;99.90
19279;DHT22;9773;47.062;15.446;2024-02-26T01:22:23;3.60;99.90
19279;DHT22;9773;47.062;15.446;2024-02-26T01:24:49;3.60;99.90
19279;DHT22;9773;47.062;15.446;2024-02-26T01:27:15;3.60;99.90
19279;DHT22;9773;47.062;15.446;2024-02-26T01:29:42;3.70;99.90
19279;DHT22;9773;47.062;15.446;2024-02-26T01:32:08;3.70;99.90
19279;DHT22;9773;47.062;15.446;2024-02-26T01:34:34;3.70;99.90
19279;DHT22;9773;47.062;15.446;2024-02-26T01:37:00;3.60;99.90
19279;DHT22;9773;47.062;15.446;2024-02-26T01:39:26;3.60;99.90
19279;DHT22;9773;47.062;15.446;2024-02-26T01:41:54;3.50;99.90
19279;DHT22;9773;47.062;15.446;2024-02-26T01:44:20;3.60;99.90
19279;DHT22;9773;47.062;15.446;2024-02-26T01:46:48;3.70;99.90
19279;DHT22;9773;47.062;15.446;2024-02-26T01:49:16;3.70;99.90
19279;DHT22;9773;47.062;15.446;2024-02-26T01:51:48;3.60;99.90
19279;DHT22;9773;47.062;15.446;2024-02-26T01:54:15;3.60;99.90
19279;DHT22;9773;47.062;15.446;2024-02-26T01:56:41;3.70;99.90
19279;DHT22;9773;47.062;15.446;2024-02-26T01:59:08;3.70;99.90
19279;DHT22;9773;47.062;15.446;2024-02-26T02:01:35;4.90;99.90
19279;DHT22;9773;47.062;15.446;2024-02-26T02:04:01;3.60;99.90
19279;DHT22;9773;47.062;15.446;2024-02-26T02:06:27;3.60;99.90
19279;DHT22;9773;47.062;15.446;2024-02-26T02:08:56;3.60;99.90
19279;DHT22;9773;47.062;15.446;2024-02-26T02:11:22;3.50;99.90
19279;DHT22;9773;47.062;15.446;2024-02-26T02:13:48;3.40;99.90
19279;DHT22;9773;47.062;15.446;2024-02-26T02:16:14;3.60;99.90
19279;DHT22;9773;47.062;15.446;2024-02-26T02:18:40;3.50;99.90
19279;DHT22;9773;47.062;15.446;2024-02-26T02:21:06;3.40;99.90
19279;DHT22;9773;47.062;15.446;2024-02-26T02:23:32;3.40;99.90
19279;DHT22;9773;47.062;15.446;2024-02-26T02:25:58;3.30;99.90
19279;DHT22;9773;47.062;15.446;2024-02-26T02:28:26;3.40;99.90
19279;DHT22;9773;47.062;15.446;2024-02-26T02:30:55;3.40;99.90
19279;DHT22;9773;47.062;15.446;2024-02-26T02:33:21;3.40;99.90
19279;DHT22;9773;47.062;15.446;2024-02-26T02:35:48;3.20;99.90
19279;DHT22;9773;47.062;15.446;2024-02-26T02:38:16;3.20;99.90
19279;DHT22;9773;47.062;15.446;2024-02-26T02:40:45;3.20;99.90
19279;DHT22;9773;47.062;15.446;2024-02-26T02:43:11;3.10;99.90
19279;DHT22;9773;47.062;15.446;2024-02-26T02:45:37;3.20;99.90
19279;DHT22;9773;47.062;15.446;2024-02-26T02:48:03;3.10;99.90
19279;DHT22;9773;47.062;15.446;2024-02-26T02:50:29;3.10;99.90
19279;DHT22;9773;47.062;15.446;2024-02-26T02:52:55;3.10;99.90
19279;DHT22;9773;47.062;15.446;2024-02-26T02:55:21;3.10;99.90
19279;DHT22;9773;47.062;15.446;2024-02-26T02:57:47;3.10;99.90
19279;DHT22;9773;47.062;15.446;2024-02-26T03:00:13;3.00;99.90
19279;DHT22;9773;47.062;15.446;2024-02-26T03:02:39;3.00;99.90
19279;DHT22;9773;47.062;15.446;2024-02-26T03:05:05;3.00;99.90
19279;DHT22;9773;47.062;15.446;2024-02-26T03:07:31;3.00;99.90
19279;DHT22;9773;47.062;15.446;2024-02-26T03:09:57;3.10;99.90
19279;DHT22;9773;47.062;15.446;2024-02-26T03:12:23;3.00;99.90
19279;DHT22;9773;47.062;15.446;2024-02-26T03:14:49;3.00;99.90
19279;DHT22;9773;47.062;15.446;2024-02-26T03:17:17;3.00;99.90
19279;DHT22;9773;47.062;15.446;2024-02-26T03:19:45;3.00;99.90
19279;DHT22;9773;47.062;15.446;2024-02-26T03:22:27;2.90;99.90
19279;DHT22;9773;47.062;15.446;2024-02-26T03:24:58;2.90;99.90
19279;DHT22;9773;47.062;15.446;2024-02-26T03:27:26;2.90;99.90
19279;DHT22;9773;47.062;15.446;2024-02-26T03:29:54;2.90;99.90
19279;DHT22;9773;47.062;15.446;2024-02-26T03:32:20;2.90;99.90
19279;DHT22;9773;47.062;15.446;2024-02-26T03:34:45;2.90;99.90
19279;DHT22;9773;47.062;15.446;2024-02-26T03:37:11;2.90;99.90
19279;DHT22;9773;47.062;15.446;2024-02-26T03:39:38;2.90;99.90
19279;DHT22;9773;47.062;15.446;2024-02-26T03:42:04;2.90;99.90
19279;DHT22;9773;47.062;15.446;2024-02-26T03:44:30;2.80;99.90
19279;DHT22;9773;47.062;15.446;2024-02-26T03:46:56;2.70;99.90
19279;DHT22;9773;47.062;15.446;2024-02-26T03:49:22;2.70;99.90
19279;DHT22;9773;47.062;15.446;2024-02-26T03:51:48;2.70;99.90
19279;DHT22;9773;47.062;15.446;2024-02-26T03:54:14;2.70;99.90
19279;DHT22;9773;47.062;15.446;2024-02-26T03:56:40;2.70;99.90
19279;DHT22;9773;47.062;15.446;2024-02-26T03:59:05;2.60;99.90
19279;DHT22;9773;47.062;15.446;2024-02-26T04:01:31;2.60;99.90
19279;DHT22;9773;47.062;15.446;2024-02-26T04:03:57;2.50;99.90
19279;DHT22;9773;47.062;15.446;2024-02-26T04:06:23;2.60;99.90
19279;DHT22;9773;47.062;15.446;2024-02-26T04:08:49;2.50;99.90
19279;DHT22;9773;47.062;15.446;2024-02-26T04:11:15;2.50;99.90
19279;DHT22;9773;47.062;15.446;2024-02-26T04:13:44;2.50;99.90
19279;DHT22;9773;47.062;15.446;2024-02-26T04:16:15;2.50;99.90
19279;DHT22;9773;47.062;15.446;2024-02-26T04:18:42;2.50;99.90
19279;DHT22;9773;47.062;15.446;2024-02-26T04:21:08;2.50;99.90
19279;DHT22;9773;47.062;15.446;2024-02-26T04:23:34;2.40;99.90
19279;DHT22;9773;47.062;15.446;2024-02-26T04:26:00;2.50;99.90
19279;DHT22;9773;47.062;15.446;2024-02-26T04:28:25;2.50;99.90
19279;DHT22;9773;47.062;15.446;2024-02-26T04:30:55;2.50;99.90
19279;DHT22;9773;47.062;15.446;2024-02-26T04:33:21;2.50;99.90
19279;DHT22;9773;47.062;15.446;2024-02-26T04:35:47;2.60;99.90
19279;DHT22;9773;47.062;15.446;2024-02-26T04:38:13;2.70;99.90
19279;DHT22;9773;47.062;15.446;2024-02-26T04:40:38;2.70;99.90
19279;DHT22;9773;47.062;15.446;2024-02-26T04:43:04;2.70;99.90
19279;DHT22;9773;47.062;15.446;2024-02-26T04:45:30;2.70;99.90
19279;DHT22;9773;47.062;15.446;2024-02-26T04:47:56;2.60;99.90
19279;DHT22;9773;47.062;15.446;2024-02-26T04:50:22;2.60;99.90
19279;DHT22;9773;47.062;15.446;2024-02-26T04:52:47;2.60;99.90
19279;DHT22;9773;47.062;15.446;2024-02-26T04:55:13;2.60;99.90
19279;DHT22;9773;47.062;15.446;2024-02-26T04:57:39;2.40;99.90
19279;DHT22;9773;47.062;15.446;2024-02-26T05:00:05;2.40;99.90
19279;DHT22;9773;47.062;15.446;2024-02-26T05:02:31;2.50;99.90
19279;DHT22;9773;47.062;15.446;2024-02-26T05:04:59;2.40;99.90
19279;DHT22;9773;47.062;15.446;2024-02-26T05:07:25;2.40;99.90
19279;DHT22;9773;47.062;15.446;2024-02-26T05:09:51;2.40;99.90
19279;DHT22;9773;47.062;15.446;2024-02-26T05:12:17;2.40;99.90
19279;DHT22;9773;47.062;15.446;2024-02-26T05:14:42;2.40;99.90
19279;DHT22;9773;47.062;15.446;2024-02-26T05:17:08;2.40;99.90
19279;DHT22;9773;47.062;15.446;2024-02-26T05:19:34;2.40;99.90
19279;DHT22;9773;47.062;15.446;2024-02-26T05:22:00;2.40;99.90
19279;DHT22;9773;47.062;15.446;2024-02-26T05:24:26;1.70;99.90
19279;DHT22;9773;47.062;15.446;2024-02-26T05:26:51;2.30;99.90
19279;DHT22;9773;47.062;15.446;2024-02-26T05:29:17;2.30;99.90
19279;DHT22;9773;47.062;15.446;2024-02-26T05:31:43;2.40;99.90
19279;DHT22;9773;47.062;15.446;2024-02-26T05:34:09;2.40;99.90
19279;DHT22;9773;47.062;15.446;2024-02-26T05:36:35;2.40;99.90
19279;DHT22;9773;47.062;15.446;2024-02-26T05:39:01;2.40;99.90
19279;DHT22;9773;47.062;15.446;2024-02-26T05:41:27;2.40;99.90
19279;DHT22;9773;47.062;15.446;2024-02-26T05:43:53;2.30;99.90
19279;DHT22;9773;47.062;15.446;2024-02-26T05:46:20;2.50;99.90
19279;DHT22;9773;47.062;15.446;2024-02-26T05:48:52;2.40;99.90
19279;DHT22;9773;47.062;15.446;2024-02-26T05:51:18;2.30;99.90
19279;DHT22;9773;47.062;15.446;2024-02-26T05:53:44;2.10;99.90
19279;DHT22;9773;47.062;15.446;2024-02-26T05:56:12;2.10;99.90
19279;DHT22;9773;47.062;15.446;2024-02-26T05:58:38;2.10;99.90
19279;DHT22;9773;47.062;15.446;2024-02-26T06:01:04;2.10;99.90
19279;DHT22;9773;47.062;15.446;2024-02-26T06:03:30;2.10;99.90
19279;DHT22;9773;47.062;15.446;2024-02-26T06:05:55;2.20;99.90
19279;DHT22;9773;47.062;15.446;2024-02-26T06:08:21;2.10;99.90
19279;DHT22;9773;47.062;15.446;2024-02-26T06:10:47;2.10;99.90
19279;DHT22;9773;47.062;15.446;2024-02-26T06:13:13;2.10;99.90
19279;DHT22;9773;47.062;15.446;2024-02-26T06:15:39;2.20;99.90
19279;DHT22;9773;47.062;15.446;2024-02-26T06:18:05;2.30;99.90
19279;DHT22;9773;47.062;15.446;2024-02-26T06:20:31;2.30;99.90
19279;DHT22;9773;47.062;15.446;2024-02-26T06:22:56;2.40;99.90
19279;DHT22;9773;47.062;15.446;2024-02-26T06:25:22;2.40;99.90
19279;DHT22;9773;47.062;15.446;2024-02-26T06:27:49;2.40;99.90
19279;DHT22;9773;47.062;15.446;2024-02-26T06:30:15;2.40;99.90
19279;DHT22;9773;47.062;15.446;2024-02-26T06:32:41;2.40;99.90
19279;DHT22;9773;47.062;15.446;2024-02-26T06:35:07;2.50;99.90
19279;DHT22;9773;47.062;15.446;2024-02-26T06:37:35;2.70;99.90
19279;DHT22;9773;47.062;15.446;2024-02-26T06:40:02;3.00;99.90
19279;DHT22;9773;47.062;15.446;2024-02-26T06:42:32;3.10;99.90
19279;DHT22;9773;47.062;15.446;2024-02-26T06:44:58;3.10;99.90
19279;DHT22;9773;47.062;15.446;2024-02-26T06:47:24;3.10;99.90
19279;DHT22;9773;47.062;15.446;2024-02-26T06:49:51;3.10;99.90
19279;DHT22;9773;47.062;15.446;2024-02-26T06:52:17;3.10;99.90
19279;DHT22;9773;47.062;15.446;2024-02-26T06:54:43;3.10;99.90
19279;DHT22;9773;47.062;15.446;2024-02-26T06:57:10;3.20;99.90
19279;DHT22;9773;47.062;15.446;2024-02-26T06:59:36;3.30;99.90
19279;DHT22;9773;47.062;15.446;2024-02-26T07:02:02;3.20;99.90
19279;DHT22;9773;47.062;15.446;2024-02-26T07:04:28;3.20;99.90
19279;DHT22;9773;47.062;15.446;2024-02-26T07:06:54;3.20;99.90
19279;DHT22;9773;47.062;15.446;2024-02-26T07:09:19;3.20;99.90
19279;DHT22;9773;47.062;15.446;2024-02-26T07:11:45;3.40;99.90
19279;DHT22;9773;47.062;15.446;2024-02-26T07:14:12;3.50;99.90
19279;DHT22;9773;47.062;15.446;2024-02-26T07:16:38;3.50;99.90
19279;DHT22;9773;47.062;15.446;2024-02-26T07:19:04;3.50;99.90
19279;DHT22;9773;47.062;15.446;2024-02-26T07:21:30;3.50;99.90
19279;DHT22;9773;47.062;15.446;2024-02-26T07:23:56;3.60;99.90
19279;DHT22;9773;47.062;15.446;2024-02-26T07:26:22;3.50;99.90
19279;DHT22;9773;47.062;15.446;2024-02-26T07:28:50;3.60;99.90
19279;DHT22;9773;47.062;15.446;2024-02-26T07:31:17;3.70;99.90
19279;DHT22;9773;47.062;15.446;2024-02-26T07:33:43;3.70;99.90
19279;DHT22;9773;47.062;15.446;2024-02-26T07:36:09;3.80;99.90
19279;DHT22;9773;47.062;15.446;2024-02-26T07:38:34;3.90;99.90
19279;DHT22;9773;47.062;15.446;2024-02-26T07:41:02;4.00;99.90
19279;DHT22;9773;47.062;15.446;2024-02-26T07:43:28;4.10;99.90
19279;DHT22;9773;47.062;15.446;2024-02-26T07:45:54;4.20;99.90
19279;DHT22;9773;47.062;15.446;2024-02-26T07:48:20;4.30;99.90
19279;DHT22;9773;47.062;15.446;2024-02-26T07:50:46;4.50;99.90
19279;DHT22;9773;47.062;15.446;2024-02-26T07:53:13;4.60;99.90
19279;DHT22;9773;47.062;15.446;2024-02-26T07:55:39;4.70;99.90
19279;DHT22;9773;47.062;15.446;2024-02-26T07:58:05;4.80;99.90
19279;DHT22;9773;47.062;15.446;2024-02-26T08:00:31;4.70;99.90
19279;DHT22;9773;47.062;15.446;2024-02-26T08:02:56;4.90;99.90
19279;DHT22;9773;47.062;15.446;2024-02-26T08:05:22;5.10;99.90
19279;DHT22;9773;47.062;15.446;2024-02-26T08:07:48;5.20;99.90
19279;DHT22;9773;47.062;15.446;2024-02-26T08:10:14;5.30;99.90
19279;DHT22;9773;47.062;15.446;2024-02-26T08:12:43;5.40;99.90
19279;DHT22;9773;47.062;15.446;2024-02-26T08:15:13;5.50;99.90
19279;DHT22;9773;47.062;15.446;2024-02-26T08:17:39;5.60;99.90
19279;DHT22;9773;47.062;15.446;2024-02-26T08:20:05;5.70;99.90
19279;DHT22;9773;47.062;15.446;2024-02-26T08:22:31;5.90;99.90
19279;DHT22;9773;47.062;15.446;2024-02-26T08:24:57;5.90;99.90
19279;DHT22;9773;47.062;15.446;2024-02-26T08:27:22;6.00;99.90
19279;DHT22;9773;47.062;15.446;2024-02-26T08:29:48;6.10;99.90
19279;DHT22;9773;47.062;15.446;2024-02-26T08:32:14;6.10;99.90
19279;DHT22;9773;47.062;15.446;2024-02-26T08:34:40;6.20;99.90
19279;DHT22;9773;47.062;15.446;2024-02-26T08:37:06;6.30;99.90
19279;DHT22;9773;47.062;15.446;2024-02-26T08:39:32;6.40;99.90
19279;DHT22;9773;47.062;15.446;2024-02-26T08:41:57;6.20;99.90
19279;DHT22;9773;47.062;15.446;2024-02-26T08:44:23;6.30;99.90
19279;DHT22;9773;47.062;15.446;2024-02-26T08:46:55;6.40;99.90
19279;DHT22;9773;47.062;15.446;2024-02-26T08:49:23;6.60;99.90
19279;DHT22;9773;47.062;15.446;2024-02-26T08:51:49;6.70;99.90
19279;DHT22;9773;47.062;15.446;2024-02-26T08:54:15;6.70;99.90
19279;DHT22;9773;47.062;15.446;2024-02-26T08:56:41;6.60;99.90
19279;DHT22;9773;47.062;15.446;2024-02-26T08:59:07;6.60;99.90
19279;DHT22;9773;47.062;15.446;2024-02-26T09:01:32;6.60;99.90
19279;DHT22;9773;47.062;15.446;2024-02-26T09:03:58;6.60;99.90
19279;DHT22;9773;47.062;15.446;2024-02-26T09:06:28;6.70;99.90
19279;DHT22;9773;47.062;15.446;2024-02-26T09:08:55;6.80;99.90
19279;DHT22;9773;47.062;15.446;2024-02-26T09:11:21;6.90;99.90
19279;DHT22;9773;47.062;15.446;2024-02-26T09:13:47;7.10;99.90
19279;DHT22;9773;47.062;15.446;2024-02-26T09:16:13;7.30;99.90
19279;DHT22;9773;47.062;15.446;2024-02-26T09:18:39;7.50;99.90
19279;DHT22;9773;47.062;15.446;2024-02-26T09:21:05;7.60;99.90
19279;DHT22;9773;47.062;15.446;2024-02-26T09:23:31;7.80;99.90
19279;DHT22;9773;47.062;15.446;2024-02-26T09:25:58;7.90;99.90
19279;DHT22;9773;47.062;15.446;2024-02-26T09:28:24;7.90;99.90
19279;DHT22;9773;47.062;15.446;2024-02-26T09:30:49;7.90;99.90
19279;DHT22;9773;47.062;15.446;2024-02-26T09:33:16;8.10;99.90
19279;DHT22;9773;47.062;15.446;2024-02-26T09:35:42;8.20;99.90
19279;DHT22;9773;47.062;15.446;2024-02-26T09:38:08;8.30;99.90
19279;DHT22;9773;47.062;15.446;2024-02-26T09:40:33;8.40;99.90
19279;DHT22;9773;47.062;15.446;2024-02-26T09:43:00;8.40;99.90
19279;DHT22;9773;47.062;15.446;2024-02-26T09:45:28;8.50;99.90
19279;DHT22;9773;47.062;15.446;2024-02-26T09:47:55;8.60;99.90
19279;DHT22;9773;47.062;15.446;2024-02-26T09:50:22;8.70;99.90
19279;DHT22;9773;47.062;15.446;2024-02-26T09:52:51;8.80;99.90
19279;DHT22;9773;47.062;15.446;2024-02-26T09:55:17;8.90;99.90
19279;DHT22;9773;47.062;15.446;2024-02-26T09:57:48;9.00;99.90
19279;DHT22;9773;47.062;15.446;2024-02-26T10:00:21;9.00;99.90
19279;DHT22;9773;47.062;15.446;2024-02-26T10:02:51;9.10;99.90
19279;DHT22;9773;47.062;15.446;2024-02-26T10:05:18;9.10;99.90
19279;DHT22;9773;47.062;15.446;2024-02-26T10:07:48;9.20;99.90
19279;DHT22;9773;47.062;15.446;2024-02-26T10:10:15;9.20;99.90
19279;DHT22;9773;47.062;15.446;2024-02-26T10:12:44;9.20;99.90
19279;DHT22;9773;47.062;15.446;2024-02-26T10:15:10;9.10;99.90
19279;DHT22;9773;47.062;15.446;2024-02-26T10:17:36;9.30;99.90
19279;DHT22;9773;47.062;15.446;2024-02-26T10:20:16;9.30;99.90
19279;DHT22;9773;47.062;15.446;2024-02-26T10:22:43;9.40;99.90
19279;DHT22;9773;47.062;15.446;2024-02-26T10:25:09;9.30;99.90
19279;DHT22;9773;47.062;15.446;2024-02-26T10:27:35;9.40;99.90
19279;DHT22;9773;47.062;15.446;2024-02-26T10:30:26;9.50;99.90
19279;DHT22;9773;47.062;15.446;2024-02-26T10:32:52;9.60;99.90
19279;DHT22;9773;47.062;15.446;2024-02-26T10:35:18;9.70;99.90
19279;DHT22;9773;47.062;15.446;2024-02-26T10:37:49;9.80;99.90
19279;DHT22;9773;47.062;15.446;2024-02-26T10:40:15;9.90;99.90
19279;DHT22;9773;47.062;15.446;2024-02-26T10:42:43;9.90;99.90
19279;DHT22;9773;47.062;15.446;2024-02-26T10:45:10;10.00;99.90
19279;DHT22;9773;47.062;15.446;2024-02-26T10:47:36;10.20;99.90
19279;DHT22;9773;47.062;15.446;2024-02-26T10:50:03;10.20;99.90
19279;DHT22;9773;47.062;15.446;2024-02-26T10:52:34;10.40;99.50
19279;DHT22;9773;47.062;15.446;2024-02-26T10:55:04;10.40;99.30
19279;DHT22;9773;47.062;15.446;2024-02-26T10:57:35;10.60;99.40
19279;DHT22;9773;47.062;15.446;2024-02-26T11:00:03;10.70;98.60
19279;DHT22;9773;47.062;15.446;2024-02-26T11:02:33;10.90;98.30
19279;DHT22;9773;47.062;15.446;2024-02-26T11:05:03;10.80;98.10
19279;DHT22;9773;47.062;15.446;2024-02-26T11:07:30;10.90;97.80
19279;DHT22;9773;47.062;15.446;2024-02-26T11:10:01;10.90;97.40
19279;DHT22;9773;47.062;15.446;2024-02-26T11:12:28;10.80;97.70
19279;DHT22;9773;47.062;15.446;2024-02-26T11:14:55;10.90;97.90
19279;DHT22;9773;47.062;15.446;2024-02-26T11:17:26;10.90;97.80
19279;DHT22;9773;47.062;15.446;2024-02-26T11:19:53;10.80;97.80
19279;DHT22;9773;47.062;15.446;2024-02-26T11:22:21;10.90;97.50
19279;DHT22;9773;47.062;15.446;2024-02-26T11:24:55;11.00;97.50
19279;DHT22;9773;47.062;15.446;2024-02-26T11:27:40;11.00;97.40
19279;DHT22;9773;47.062;15.446;2024-02-26T11:30:12;11.00;97.10
19279;DHT22;9773;47.062;15.446;2024-02-26T11:32:39;11.10;97.10
19279;DHT22;9773;47.062;15.446;2024-02-26T11:35:05;11.20;97.10
19279;DHT22;9773;47.062;15.446;2024-02-26T11:37:33;11.30;96.90
19279;DHT22;9773;47.062;15.446;2024-02-26T11:40:00;11.50;97.20
19279;DHT22;9773;47.062;15.446;2024-02-26T11:42:26;11.50;97.30
19279;DHT22;9773;47.062;15.446;2024-02-26T11:44:54;11.60;97.00
19279;DHT22;9773;47.062;15.446;2024-02-26T11:47:22;11.60;97.10
19279;DHT22;9773;47.062;15.446;2024-02-26T11:49:48;11.50;97.30
19279;DHT22;9773;47.062;15.446;2024-02-26T11:52:15;11.50;97.10
19279;DHT22;9773;47.062;15.446;2024-02-26T11:54:51;11.60;97.10
19279;DHT22;9773;47.062;15.446;2024-02-26T12:00:14;11.60;97.30
19279;DHT22;9773;47.062;15.446;2024-02-26T12:02:49;11.80;97.10
19279;DHT22;9773;47.062;15.446;2024-02-26T12:05:19;11.80;97.20
19279;DHT22;9773;47.062;15.446;2024-02-26T12:07:59;11.80;97.10
19279;DHT22;9773;47.062;15.446;2024-02-26T12:10:30;11.80;97.50
19279;DHT22;9773;47.062;15.446;2024-02-26T12:13:03;11.90;97.20
19279;DHT22;9773;47.062;15.446;2024-02-26T12:15:55;11.80;97.10
19279;DHT22;9773;47.062;15.446;2024-02-26T12:18:22;11.90;96.80
19279;DHT22;9773;47.062;15.446;2024-02-26T12:21:02;11.90;97.10
19279;DHT22;9773;47.062;15.446;2024-02-26T12:23:28;11.90;97.50
19279;DHT22;9773;47.062;15.446;2024-02-26T12:25:58;11.90;97.40
19279;DHT22;9773;47.062;15.446;2024-02-26T12:28:31;11.90;96.80
19279;DHT22;9773;47.062;15.446;2024-02-26T12:30:58;11.80;97.70
19279;DHT22;9773;47.062;15.446;2024-02-26T12:33:25;11.90;97.40
19279;DHT22;9773;47.062;15.446;2024-02-26T12:35:58;12.00;97.30
19279;DHT22;9773;47.062;15.446;2024-02-26T12:38:24;12.10;97.00
19279;DHT22;9773;47.062;15.446;2024-02-26T12:40:50;12.10;97.00
19279;DHT22;9773;47.062;15.446;2024-02-26T12:43:16;12.20;97.30
19279;DHT22;9773;47.062;15.446;2024-02-26T12:45:43;12.30;97.00
19279;DHT22;9773;47.062;15.446;2024-02-26T12:48:12;12.40;96.90
19279;DHT22;9773;47.062;15.446;2024-02-26T12:50:38;12.40;96.40
19279;DHT22;9773;47.062;15.446;2024-02-26T12:53:04;12.20;96.60
19279;DHT22;9773;47.062;15.446;2024-02-26T12:55:31;12.30;96.40
19279;DHT22;9773;47.062;15.446;2024-02-26T12:58:00;12.20;96.40
19279;DHT22;9773;47.062;15.446;2024-02-26T13:00:27;12.20;96.30
19279;DHT22;9773;47.062;15.446;2024-02-26T13:02:54;12.30;96.40
19279;DHT22;9773;47.062;15.446;2024-02-26T13:05:21;12.30;96.00
19279;DHT22;9773;47.062;15.446;2024-02-26T13:07:48;12.10;96.30
19279;DHT22;9773;47.062;15.446;2024-02-26T13:10:14;12.10;96.50
19279;DHT22;9773;47.062;15.446;2024-02-26T13:12:44;12.10;96.60
19279;DHT22;9773;47.062;15.446;2024-02-26T13:15:15;12.20;96.10
19279;DHT22;9773;47.062;15.446;2024-02-26T13:17:41;12.10;96.20
19279;DHT22;9773;47.062;15.446;2024-02-26T13:20:09;12.10;96.30
19279;DHT22;9773;47.062;15.446;2024-02-26T13:22:38;12.00;96.70
19279;DHT22;9773;47.062;15.446;2024-02-26T13:25:05;12.10;96.20
19279;DHT22;9773;47.062;15.446;2024-02-26T13:27:33;12.00;96.00
19279;DHT22;9773;47.062;15.446;2024-02-26T13:30:09;12.00;96.20
19279;DHT22;9773;47.062;15.446;2024-02-26T13:32:37;12.00;95.90
19279;DHT22;9773;47.062;15.446;2024-02-26T13:35:10;12.00;95.80
19279;DHT22;9773;47.062;15.446;2024-02-26T13:37:37;12.00;96.20
19279;DHT22;9773;47.062;15.446;2024-02-26T13:40:10;12.10;96.00
19279;DHT22;9773;47.062;15.446;2024-02-26T13:42:37;12.10;96.00
19279;DHT22;9773;47.062;15.446;2024-02-26T13:45:03;12.00;96.00
19279;DHT22;9773;47.062;15.446;2024-02-26T13:47:33;11.90;95.90
19279;DHT22;9773;47.062;15.446;2024-02-26T13:49:59;12.00;95.90
19279;DHT22;9773;47.062;15.446;2024-02-26T13:52:26;11.90;95.70
19279;DHT22;9773;47.062;15.446;2024-02-26T13:54:52;12.00;95.60
19279;DHT22;9773;47.062;15.446;2024-02-26T13:57:19;11.90;95.40
19279;DHT22;9773;47.062;15.446;2024-02-26T13:59:45;12.00;95.20
19279;DHT22;9773;47.062;15.446;2024-02-26T14:02:12;12.00;95.00
19279;DHT22;9773;47.062;15.446;2024-02-26T14:04:38;11.90;94.90
19279;DHT22;9773;47.062;15.446;2024-02-26T14:07:04;12.10;95.20
19279;DHT22;9773;47.062;15.446;2024-02-26T14:09:30;12.20;95.40
19279;DHT22;9773;47.062;15.446;2024-02-26T14:11:58;12.10;95.30
19279;DHT22;9773;47.062;15.446;2024-02-26T14:14:24;12.10;95.20
19279;DHT22;9773;47.062;15.446;2024-02-26T14:16:51;12.10;95.30
19279;DHT22;9773;47.062;15.446;2024-02-26T14:19:17;12.00;95.20
19279;DHT22;9773;47.062;15.446;2024-02-26T14:21:43;12.00;95.00
19279;DHT22;9773;47.062;15.446;2024-02-26T14:24:09;12.10;95.30
19279;DHT22;9773;47.062;15.446;2024-02-26T14:26:35;12.10;94.60
19279;DHT22;9773;47.062;15.446;2024-02-26T14:29:01;12.10;94.20
19279;DHT22;9773;47.062;15.446;2024-02-26T14:31:26;12.00;94.40
19279;DHT22;9773;47.062;15.446;2024-02-26T14:33:52;12.10;94.40
19279;DHT22;9773;47.062;15.446;2024-02-26T14:36:21;12.00;93.90
19279;DHT22;9773;47.062;15.446;2024-02-26T14:38:48;12.10;94.10
19279;DHT22;9773;47.062;15.446;2024-02-26T14:41:14;12.10;94.00
19279;DHT22;9773;47.062;15.446;2024-02-26T14:43:40;12.10;93.90
19279;DHT22;9773;47.062;15.446;2024-02-26T14:46:05;12.20;94.50
19279;DHT22;9773;47.062;15.446;2024-02-26T14:48:31;12.30;94.60
19279;DHT22;9773;47.062;15.446;2024-02-26T14:50:58;12.20;94.40
19279;DHT22;9773;47.062;15.446;2024-02-26T14:53:24;12.10;94.80
19279;DHT22;9773;47.062;15.446;2024-02-26T14:55:50;12.10;94.90
19279;DHT22;9773;47.062;15.446;2024-02-26T14:58:17;12.10;95.00
19279;DHT22;9773;47.062;15.446;2024-02-26T15:00:42;12.00;94.70
19279;DHT22;9773;47.062;15.446;2024-02-26T15:03:08;12.00;94.90
19279;DHT22;9773;47.062;15.446;2024-02-26T15:05:34;11.90;94.70
19279;DHT22;9773;47.062;15.446;2024-02-26T15:08:01;12.00;95.00
19279;DHT22;9773;47.062;15.446;2024-02-26T15:10:28;11.90;95.20
19279;DHT22;9773;47.062;15.446;2024-02-26T15:12:54;11.90;94.90
19279;DHT22;9773;47.062;15.446;2024-02-26T15:15:21;11.90;94.60
19279;DHT22;9773;47.062;15.446;2024-02-26T15:17:48;11.80;94.70
19279;DHT22;9773;47.062;15.446;2024-02-26T15:20:15;11.80;94.70
19279;DHT22;9773;47.062;15.446;2024-02-26T15:22:41;11.70;94.70
19279;DHT22;9773;47.062;15.446;2024-02-26T15:25:08;11.60;94.90
19279;DHT22;9773;47.062;15.446;2024-02-26T15:27:34;11.60;94.70
19279;DHT22;9773;47.062;15.446;2024-02-26T15:30:01;11.50;94.60
19279;DHT22;9773;47.062;15.446;2024-02-26T15:32:27;11.40;94.80
19279;DHT22;9773;47.062;15.446;2024-02-26T15:34:56;11.30;95.10
19279;DHT22;9773;47.062;15.446;2024-02-26T15:37:23;11.30;95.20
19279;DHT22;9773;47.062;15.446;2024-02-26T15:39:49;11.30;95.30
19279;DHT22;9773;47.062;15.446;2024-02-26T15:42:15;11.30;95.30
19279;DHT22;9773;47.062;15.446;2024-02-26T15:44:41;11.30;95.50